createdAt,value
2022-08-05T00:02:20.335Z,46.98
2022-08-05T00:04:47.654Z,47.37
2022-08-05T00:07:58.834Z,47.06
2022-08-05T00:10:10.677Z,47.40
2022-08-05T00:12:56.520Z,47.35
2022-08-05T00:15:55.109Z,47.05
2022-08-05T00:18:21.458Z,47.10
2022-08-05T00:20:49.184Z,47.11
2022-08-05T00:23:16.403Z,47.13
2022-08-05T00:25:45.713Z,47.20
2022-08-05T00:28:13.631Z,47.30
2022-08-05T00:30:44.203Z,47.29
2022-08-05T00:33:15.351Z,47.13
2022-08-05T00:36:16.565Z,47.06
2022-08-05T00:38:45.949Z,47.50
2022-08-05T00:41:13.261Z,47.49
2022-08-05T00:43:47.310Z,47.20
2022-08-05T00:46:16.929Z,47.36
2022-08-05T00:49:04.386Z,47.21
2022-08-05T00:51:51.999Z,47.53
2022-08-05T00:54:19.436Z,47.12
2022-08-05T00:56:51.398Z,47.48
2022-08-05T00:59:18.955Z,47.47
2022-08-05T01:01:48.560Z,47.09
2022-08-05T01:04:19.900Z,47.05
2022-08-05T01:06:51.732Z,47.27
2022-08-05T01:09:19.897Z,47.45
2022-08-05T01:11:49.677Z,47.51
2022-08-05T01:14:28.440Z,47.35
2022-08-05T01:17:02.046Z,47.35
2022-08-05T01:20:00.948Z,47.39
2022-08-05T01:22:41.550Z,47.31
2022-08-05T01:25:14.846Z,47.26
2022-08-05T01:27:55.309Z,47.05
2022-08-05T01:30:34.223Z,47.37
2022-08-05T01:33:08.219Z,47.40
2022-08-05T01:35:52.194Z,47.36
2022-08-05T01:38:27.496Z,46.95
2022-08-05T01:40:58.790Z,47.22
2022-08-05T01:43:28.044Z,47.36
2022-08-05T01:45:56.559Z,47.09
2022-08-05T01:48:25.181Z,47.21
2022-08-05T01:50:52.601Z,47.35
2022-08-05T01:53:55.139Z,47.35
2022-08-05T01:56:09.512Z,47.35
2022-08-05T01:58:44.711Z,47.23
2022-08-05T02:01:24.569Z,47.11
2022-08-05T02:03:53.649Z,47.17
2022-08-05T02:06:37.121Z,47.21
2022-08-05T02:09:05.885Z,47.10
2022-08-05T02:11:42.098Z,46.81
2022-08-05T02:14:12.926Z,46.88
2022-08-05T02:16:53.102Z,47.10
2022-08-05T02:19:23.488Z,47.16
2022-08-05T02:22:02.237Z,47.29
2022-08-05T02:24:34.118Z,47.11
2022-08-05T02:27:09.137Z,47.21
2022-08-05T02:29:58.757Z,47.00
2022-08-05T02:32:30.970Z,47.28
2022-08-05T02:35:09.601Z,47.30
2022-08-05T02:37:41.567Z,47.18
2022-08-05T02:40:09.967Z,47.31
2022-08-05T02:42:37.793Z,46.93
2022-08-05T02:45:05.723Z,47.16
2022-08-05T02:48:07.514Z,47.17
2022-08-05T02:50:23.113Z,47.22
2022-08-05T02:52:51.031Z,46.88
2022-08-05T02:55:54.984Z,47.26
2022-08-05T02:58:12.294Z,47.10
2022-08-05T03:00:41.152Z,47.07
2022-08-05T03:03:16.614Z,47.20
2022-08-05T03:06:53.647Z,46.92
2022-08-05T03:08:31.165Z,47.31
2022-08-05T03:11:53.436Z,47.13
2022-08-05T03:13:51.077Z,47.19
2022-08-05T03:16:29.770Z,47.09
2022-08-05T03:18:59.639Z,47.17
2022-08-05T03:21:28.844Z,46.96
2022-08-05T03:24:00.619Z,47.34
2022-08-05T03:26:31.769Z,46.91
2022-08-05T03:28:59.940Z,47.30
2022-08-05T03:31:56.759Z,47.12
2022-08-05T03:34:15.209Z,47.25
2022-08-05T03:36:42.689Z,47.19
2022-08-05T03:39:13.123Z,46.94
2022-08-05T03:41:47.461Z,47.20
2022-08-05T03:44:20.208Z,46.95
2022-08-05T03:46:47.368Z,47.27
2022-08-05T03:49:15.771Z,47.44
2022-08-05T03:52:37.528Z,47.07
2022-08-05T03:55:54.209Z,47.03
2022-08-05T03:57:42.569Z,47.07
2022-08-05T04:00:15.872Z,47.46
2022-08-05T04:02:57.777Z,47.38
2022-08-05T04:05:34.680Z,47.36
2022-08-05T04:08:03.519Z,47.18
2022-08-05T04:10:37.987Z,47.04
2022-08-05T04:13:06.355Z,47.19
2022-08-05T04:15:35.921Z,47.29
2022-08-05T04:18:07.060Z,47.05
2022-08-05T04:20:35.060Z,47.23
2022-08-05T04:23:02.285Z,47.13
2022-08-05T04:25:56.673Z,47.45
2022-08-05T04:28:18.740Z,47.38
2022-08-05T04:30:46.145Z,47.41
2022-08-05T04:33:15.602Z,47.26
2022-08-05T04:36:15.683Z,47.03
2022-08-05T04:38:39.796Z,47.36
2022-08-05T04:41:09.618Z,47.23
2022-08-05T04:43:37.905Z,47.38
2022-08-05T04:46:13.611Z,47.12
2022-08-05T04:48:57.958Z,47.43
2022-08-05T04:51:25.970Z,47.27
2022-08-05T04:53:57.782Z,47.43
2022-08-05T04:56:34.929Z,47.00
2022-08-05T04:59:21.544Z,47.33
2022-08-05T05:02:35.503Z,47.35
2022-08-05T05:04:38.184Z,47.17
2022-08-05T05:07:09.556Z,47.43
2022-08-05T05:09:37.228Z,47.32
2022-08-05T05:12:04.927Z,47.00
2022-08-05T05:14:33.376Z,47.02
2022-08-05T05:17:07.278Z,47.03
2022-08-05T05:19:36.514Z,47.08
2022-08-05T05:22:23.571Z,47.01
2022-08-05T05:24:57.373Z,47.40
2022-08-05T05:27:41.323Z,47.21
2022-08-05T05:30:15.465Z,47.18
2022-08-05T05:32:56.885Z,47.20
2022-08-05T05:35:27.357Z,47.40
2022-08-05T05:38:00.380Z,46.96
2022-08-05T05:40:30.036Z,47.38
2022-08-05T05:42:59.859Z,47.08
2022-08-05T05:45:29.500Z,46.96
2022-08-05T05:48:06.075Z,47.35
2022-08-05T05:50:44.095Z,47.35
2022-08-05T05:53:21.588Z,47.25
2022-08-05T05:55:51.395Z,46.87
2022-08-05T05:58:30.387Z,47.29
2022-08-05T06:01:02.184Z,47.16
2022-08-05T06:04:00.816Z,47.25
2022-08-05T06:06:33.228Z,47.30
2022-08-05T06:09:03.256Z,47.27
2022-08-05T06:11:31.763Z,47.29
2022-08-05T06:14:00.341Z,47.14
2022-08-05T06:16:36.593Z,47.21
2022-08-05T06:19:05.788Z,47.23
2022-08-05T06:21:36.971Z,46.86
2022-08-05T06:24:07.723Z,47.19
2022-08-05T06:26:38.676Z,47.12
2022-08-05T06:29:06.991Z,47.23
2022-08-05T06:31:53.305Z,47.14
2022-08-05T06:34:20.420Z,47.11
2022-08-05T06:36:57.257Z,47.21
2022-08-05T06:39:27.147Z,47.16
2022-08-05T06:41:59.216Z,46.88
2022-08-05T06:44:26.915Z,47.14
2022-08-05T06:46:54.591Z,46.95
2022-08-05T06:50:01.475Z,47.19
2022-08-05T06:52:38.083Z,47.07
2022-08-05T06:54:56.017Z,46.95
2022-08-05T06:57:58.098Z,47.17
2022-08-05T07:00:10.732Z,46.93
2022-08-05T07:02:46.393Z,46.88
2022-08-05T07:05:15.280Z,47.26
2022-08-05T07:07:49.044Z,46.82
2022-08-05T07:10:16.639Z,47.14
2022-08-05T07:13:02.711Z,46.88
2022-08-05T07:16:01.748Z,47.23
2022-08-05T07:18:32.044Z,47.27
2022-08-05T07:21:05.478Z,47.29
2022-08-05T07:23:32.875Z,47.30
2022-08-05T07:26:00.879Z,46.94
2022-08-05T07:28:29.164Z,46.92
2022-08-05T07:30:56.703Z,47.27
2022-08-05T07:33:36.904Z,46.91
2022-08-05T07:36:20.391Z,47.24
2022-08-05T07:38:48.940Z,47.26
2022-08-05T07:42:13.011Z,47.20
2022-08-05T07:44:06.001Z,46.92
2022-08-05T07:46:41.793Z,47.17
2022-08-05T07:49:15.486Z,47.30
2022-08-05T07:51:53.320Z,47.17
2022-08-05T07:54:31.599Z,47.20
2022-08-05T07:57:22.437Z,47.31
2022-08-05T07:59:49.773Z,46.98
2022-08-05T08:02:18.027Z,47.21
2022-08-05T08:04:46.773Z,47.04
2022-08-05T08:07:15.024Z,47.16
2022-08-05T08:09:43.542Z,46.94
2022-08-05T08:12:30.561Z,46.90
2022-08-05T08:15:02.380Z,47.31
2022-08-05T08:17:30.212Z,46.91
2022-08-05T08:20:10.828Z,47.16
2022-08-05T08:22:50.570Z,47.20
2022-08-05T08:25:18.270Z,47.21
2022-08-05T08:27:54.743Z,47.28
2022-08-05T08:30:32.851Z,47.13
2022-08-05T08:33:09.248Z,46.99
2022-08-05T08:35:53.028Z,46.94
2022-08-05T08:38:32.224Z,47.25
2022-08-05T08:41:05.772Z,47.24
2022-08-05T08:45:22.447Z,46.90
2022-08-05T08:46:22.058Z,47.16
2022-08-05T08:49:06.155Z,47.27
2022-08-05T08:52:03.670Z,47.17
2022-08-05T08:54:27.329Z,47.16
2022-08-05T08:56:56.429Z,47.27
2022-08-05T08:59:27.727Z,47.25
2022-08-05T09:02:02.046Z,46.84
2022-08-05T09:04:30.281Z,47.12
2022-08-05T09:06:58.334Z,47.09
2022-08-05T09:09:34.885Z,46.89
2022-08-05T09:12:20.204Z,47.25
2022-08-05T09:14:57.114Z,46.89
2022-08-05T09:17:42.386Z,47.11
2022-08-05T09:20:11.225Z,46.85
2022-08-05T09:23:04.845Z,46.93
2022-08-05T09:26:01.063Z,47.22
2022-08-05T09:28:24.510Z,47.31
2022-08-05T09:31:43.136Z,47.29
2022-08-05T09:33:59.484Z,47.16
2022-08-05T09:36:59.906Z,46.97
2022-08-05T09:39:41.550Z,47.36
2022-08-05T09:42:23.532Z,47.03
2022-08-05T09:44:56.607Z,47.01
2022-08-05T09:47:25.695Z,47.18
2022-08-05T09:50:02.309Z,47.33
2022-08-05T09:52:34.063Z,46.89
2022-08-05T09:55:55.476Z,47.30
2022-08-05T09:57:49.838Z,47.23
2022-08-05T10:00:24.709Z,46.89
2022-08-05T10:02:58.706Z,47.32
2022-08-05T10:05:32.851Z,47.35
2022-08-05T10:08:35.740Z,47.15
2022-08-05T10:10:53.957Z,47.05
2022-08-05T10:13:31.579Z,47.04
2022-08-05T10:16:31.088Z,47.35
2022-08-05T10:19:00.009Z,46.85
2022-08-05T10:21:35.204Z,46.99
2022-08-05T10:24:10.868Z,47.34
2022-08-05T10:26:51.257Z,47.24
2022-08-05T10:30:05.801Z,47.31
2022-08-05T10:32:54.653Z,47.08
2022-08-05T10:35:00.960Z,47.34
2022-08-05T10:37:44.505Z,47.21
2022-08-05T10:40:27.970Z,47.16
2022-08-05T10:42:58.709Z,46.91
2022-08-05T10:45:40.473Z,47.24
2022-08-05T10:48:31.005Z,47.27
2022-08-05T10:51:06.340Z,46.84
2022-08-05T10:53:55.796Z,47.12
2022-08-05T10:56:27.028Z,47.24
2022-08-05T10:58:54.555Z,47.32
2022-08-05T11:01:55.496Z,46.92
2022-08-05T11:04:21.595Z,47.25
2022-08-05T11:06:58.017Z,47.28
2022-08-05T11:09:39.475Z,47.26
2022-08-05T11:12:32.258Z,46.94
2022-08-05T11:15:19.574Z,47.21
2022-08-05T11:17:57.268Z,46.99
2022-08-05T11:20:43.772Z,47.00
2022-08-05T11:23:33.255Z,46.82
2022-08-05T11:26:04.943Z,47.12
2022-08-05T11:28:35.861Z,47.23
2022-08-05T11:31:06.565Z,47.19
2022-08-05T11:33:46.410Z,47.11
2022-08-05T11:36:34.420Z,47.07
2022-08-05T11:39:04.534Z,47.09
2022-08-05T11:41:54.656Z,47.20
2022-08-05T11:44:40.817Z,47.19
2022-08-05T11:47:11.210Z,47.05
2022-08-05T11:49:43.246Z,47.14
2022-08-05T11:52:23.422Z,47.06
2022-08-05T11:54:58.182Z,46.80
2022-08-05T11:57:29.563Z,47.02
2022-08-05T11:59:58.341Z,47.06
2022-08-05T12:02:31.437Z,46.89
2022-08-05T12:05:00.884Z,47.01
2022-08-05T12:08:07.462Z,46.97
2022-08-05T12:10:22.985Z,47.18
2022-08-05T12:12:59.578Z,46.77
2022-08-05T12:15:38.449Z,46.86
2022-08-05T12:18:10.747Z,47.12
2022-08-05T12:20:38.826Z,46.99
2022-08-05T12:23:09.890Z,47.03
2022-08-05T12:25:50.200Z,46.51
2022-08-05T12:28:32.597Z,47.09
2022-08-05T12:31:02.245Z,46.74
2022-08-05T12:33:36.729Z,46.89
2022-08-05T12:36:07.010Z,46.92
2022-08-05T12:38:41.868Z,46.53
2022-08-05T12:41:13.218Z,46.97
2022-08-05T12:43:51.580Z,46.81
2022-08-05T12:46:29.472Z,46.72
2022-08-05T12:49:01.609Z,46.92
2022-08-05T12:52:13.788Z,46.77
2022-08-05T12:54:35.675Z,46.80
2022-08-05T12:57:09.439Z,46.67
2022-08-05T13:01:58.319Z,46.78
2022-08-05T13:02:37.182Z,47.00
2022-08-05T13:05:07.289Z,46.97
2022-08-05T13:10:22.015Z,46.45
2022-08-05T13:12:57.730Z,46.95
2022-08-05T13:15:42.185Z,46.90
2022-08-05T13:18:20.849Z,46.61
2022-08-05T13:20:49.876Z,46.84
2022-08-05T13:23:22.162Z,46.86
2022-08-05T13:25:59.195Z,46.71
2022-08-05T13:28:27.464Z,46.74
2022-08-05T13:30:54.593Z,46.77
2022-08-05T13:34:23.041Z,46.85
2022-08-05T13:36:09.656Z,46.51
2022-08-05T13:38:38.418Z,46.44
2022-08-05T13:41:10.889Z,46.78
2022-08-05T13:43:45.305Z,46.79
2022-08-05T13:47:01.553Z,46.47
2022-08-05T13:49:11.705Z,46.65
2022-08-05T13:51:40.900Z,46.70
2022-08-05T13:54:11.812Z,46.40
2022-08-05T13:56:45.467Z,46.62
2022-08-05T13:59:24.418Z,46.30
2022-08-05T14:01:57.489Z,46.62
2022-08-05T14:04:50.102Z,46.68
2022-08-05T14:07:59.774Z,46.64
2022-08-05T14:10:28.668Z,46.56
2022-08-05T14:12:56.982Z,46.54
2022-08-05T14:16:08.113Z,46.59
2022-08-05T14:18:17.601Z,46.58
2022-08-05T14:20:47.267Z,46.33
2022-08-05T14:23:24.019Z,46.55
2022-08-05T14:25:54.493Z,46.21
2022-08-05T14:28:26.748Z,46.62
2022-08-05T14:30:54.765Z,46.40
2022-08-05T14:33:22.716Z,46.68
2022-08-05T14:35:51.902Z,46.47
2022-08-05T14:38:33.275Z,46.49
2022-08-05T14:41:05.705Z,46.57
2022-08-05T14:43:57.753Z,46.32
2022-08-05T14:46:23.299Z,46.56
2022-08-05T14:48:57.244Z,46.40
2022-08-05T14:51:24.311Z,46.65
2022-08-05T14:54:25.940Z,46.24
2022-08-05T14:56:44.349Z,46.63
2022-08-05T14:59:14.507Z,46.45
2022-08-05T15:01:49.164Z,46.68
2022-08-05T15:04:20.763Z,46.21
2022-08-05T15:06:50.425Z,46.61
2022-08-05T15:09:54.234Z,46.48
2022-08-05T15:12:05.794Z,46.65
2022-08-05T15:14:34.821Z,46.58
2022-08-05T15:17:44.582Z,46.42
2022-08-05T15:19:57.545Z,46.39
2022-08-05T15:22:27.204Z,46.58
2022-08-05T15:24:55.838Z,46.47
2022-08-05T15:27:25.543Z,46.57
2022-08-05T15:29:56.639Z,46.43
2022-08-05T15:32:27.405Z,46.68
2022-08-05T15:34:56.957Z,46.71
2022-08-05T15:38:21.123Z,46.47
2022-08-05T15:41:00.213Z,46.71
2022-08-05T15:43:09.106Z,46.45
2022-08-05T15:45:43.145Z,46.25
2022-08-05T15:48:14.432Z,46.43
2022-08-05T15:50:43.681Z,46.19
2022-08-05T15:53:13.106Z,46.58
2022-08-05T15:56:03.462Z,46.71
2022-08-05T15:58:35.801Z,46.63
2022-08-05T16:01:17.422Z,46.44
2022-08-05T16:03:50.464Z,46.63
2022-08-05T16:06:20.306Z,46.19
2022-08-05T16:08:50.371Z,46.25
2022-08-05T16:11:21.055Z,46.33
2022-08-05T16:14:08.991Z,46.41
2022-08-05T16:16:36.422Z,46.59
2022-08-05T16:19:03.896Z,46.34
2022-08-05T16:21:58.741Z,46.59
2022-08-05T16:24:41.922Z,46.43
2022-08-05T16:27:07.309Z,46.51
2022-08-05T16:29:45.519Z,46.46
2022-08-05T16:32:17.688Z,46.68
2022-08-05T16:34:55.556Z,46.57
2022-08-05T16:38:02.321Z,46.45
2022-08-05T16:40:24.943Z,46.25
2022-08-05T16:42:53.872Z,46.35
2022-08-05T16:46:05.304Z,46.27
2022-08-05T16:48:08.075Z,46.65
2022-08-05T16:50:37.711Z,46.33
2022-08-05T16:53:12.025Z,46.39
2022-08-05T16:55:47.227Z,46.39
2022-08-05T16:58:14.650Z,46.59
2022-08-05T17:00:48.139Z,46.32
2022-08-05T17:03:20.452Z,46.58
2022-08-05T17:05:54.047Z,46.52
2022-08-05T17:08:36.239Z,46.43
2022-08-05T17:11:16.817Z,46.41
2022-08-05T17:13:45.065Z,46.30
2022-08-05T17:16:29.770Z,46.31
2022-08-05T17:18:59.467Z,46.57
2022-08-05T17:21:35.283Z,46.42
2022-08-05T17:24:14.401Z,46.43
2022-08-05T17:26:52.507Z,46.20
2022-08-05T17:29:22.578Z,46.42
2022-08-05T17:31:59.968Z,46.23
2022-08-05T17:34:30.199Z,46.61
2022-08-05T17:36:59.532Z,46.65
2022-08-05T17:39:34.413Z,46.65
2022-08-05T17:42:17.809Z,46.48
2022-08-05T17:44:50.410Z,46.56
2022-08-05T17:47:22.170Z,46.57
2022-08-05T17:49:59.556Z,46.39
2022-08-05T17:52:34.789Z,46.41
2022-08-05T17:55:20.680Z,46.61
2022-08-05T17:57:50.041Z,46.54
2022-08-05T18:00:17.584Z,46.48
2022-08-05T18:02:47.299Z,46.51
2022-08-05T18:05:16.744Z,46.42
2022-08-05T18:07:44.691Z,46.57
2022-08-05T18:10:12.049Z,46.33
2022-08-05T18:12:51.123Z,46.75
2022-08-05T18:15:18.438Z,46.23
2022-08-05T18:18:01.311Z,46.58
2022-08-05T18:20:34.483Z,46.65
2022-08-05T18:23:08.974Z,46.55
2022-08-05T18:25:39.192Z,46.44
2022-08-05T18:28:07.173Z,46.30
2022-08-05T18:30:39.101Z,46.74
2022-08-05T18:33:08.554Z,46.44
2022-08-05T18:36:01.126Z,46.35
2022-08-05T18:38:29.083Z,46.43
2022-08-05T18:41:54.320Z,46.46
2022-08-05T18:43:48.435Z,46.65
2022-08-05T18:46:19.924Z,46.73
2022-08-05T18:48:53.759Z,46.71
2022-08-05T18:52:02.691Z,46.48
2022-08-05T18:54:28.330Z,46.69
2022-08-05T18:57:01.721Z,46.31
2022-08-05T18:59:43.960Z,46.74
2022-08-05T19:02:36.491Z,46.68
2022-08-05T19:06:05.289Z,46.38
2022-08-05T19:07:56.163Z,46.60
2022-08-05T19:10:26.471Z,46.46
2022-08-05T19:12:56.760Z,46.44
2022-08-05T19:15:56.731Z,46.63
2022-08-05T19:18:20.591Z,46.67
2022-08-05T19:20:55.883Z,46.29
2022-08-05T19:24:05.570Z,46.69
2022-08-05T19:26:11.389Z,46.66
2022-08-05T19:28:42.012Z,46.76
2022-08-05T19:31:13.239Z,46.75
2022-08-05T19:33:47.951Z,46.36
2022-08-05T19:36:24.204Z,46.64
2022-08-05T19:38:51.555Z,46.66
2022-08-05T19:41:22.163Z,46.44
2022-08-05T19:44:12.794Z,46.75
2022-08-05T19:46:41.612Z,46.60
2022-08-05T19:49:12.451Z,46.46
2022-08-05T19:52:05.889Z,46.46
2022-08-05T19:54:32.907Z,46.44
2022-08-05T19:57:06.479Z,46.44
2022-08-05T20:00:01.673Z,46.75
2022-08-05T20:02:26.244Z,46.53
2022-08-05T20:04:59.178Z,46.33
2022-08-05T20:07:46.224Z,46.63
2022-08-05T20:10:14.978Z,46.42
2022-08-05T20:12:47.718Z,46.57
2022-08-05T20:15:23.374Z,46.64
2022-08-05T20:18:10.689Z,46.48
2022-08-05T20:20:51.516Z,46.62
2022-08-05T20:23:22.627Z,46.31
2022-08-05T20:25:52.218Z,46.62
2022-08-05T20:28:19.544Z,46.52
2022-08-05T20:30:46.755Z,46.42
2022-08-05T20:33:16.467Z,46.28
2022-08-05T20:35:45.501Z,46.39
2022-08-05T20:38:14.428Z,46.27
2022-08-05T20:40:50.545Z,46.65
2022-08-05T20:43:17.745Z,46.46
2022-08-05T20:46:06.802Z,46.23
2022-08-05T20:48:36.095Z,46.24
2022-08-05T20:51:08.339Z,46.58
2022-08-05T20:53:37.153Z,46.52
2022-08-05T20:56:09.680Z,46.32
2022-08-05T20:58:37.173Z,46.33
2022-08-05T21:01:04.794Z,46.65
2022-08-05T21:03:34.516Z,46.65
2022-08-05T21:06:02.144Z,46.29
2022-08-05T21:08:41.845Z,46.27
2022-08-05T21:11:11.788Z,46.38
2022-08-05T21:13:48.088Z,46.28
2022-08-05T21:16:29.497Z,46.41
2022-08-05T21:19:01.737Z,46.36
2022-08-05T21:21:39.352Z,46.64
2022-08-05T21:24:12.624Z,46.33
2022-08-05T21:26:41.406Z,46.59
2022-08-05T21:29:12.515Z,46.43
2022-08-05T21:31:43.708Z,46.27
2022-08-05T21:34:11.453Z,46.30
2022-08-05T21:36:39.486Z,46.28
2022-08-05T21:39:10.145Z,46.72
2022-08-05T21:41:41.882Z,46.44
2022-08-05T21:44:27.043Z,46.38
2022-08-05T21:46:58.519Z,46.32
2022-08-05T21:49:59.397Z,46.39
2022-08-05T21:52:27.549Z,46.51
2022-08-05T21:55:06.818Z,46.40
2022-08-05T21:57:35.613Z,46.45
2022-08-05T22:00:05.950Z,46.41
2022-08-05T22:02:39.940Z,46.66
2022-08-05T22:05:10.732Z,46.52
2022-08-05T22:07:54.258Z,46.33
2022-08-05T22:10:27.139Z,46.31
2022-08-05T22:12:57.158Z,46.57
2022-08-05T22:16:02.036Z,46.47
2022-08-05T22:18:14.339Z,46.55
2022-08-05T22:20:41.880Z,46.46
2022-08-05T22:24:02.336Z,46.40
2022-08-05T22:26:35.770Z,46.51
2022-08-05T22:29:03.411Z,46.30
2022-08-05T22:31:30.929Z,46.34
2022-08-05T22:34:12.942Z,46.56
2022-08-05T22:36:48.162Z,46.47
2022-08-05T22:39:21.591Z,46.39
2022-08-05T22:42:11.436Z,46.38
2022-08-05T22:44:35.818Z,46.73
2022-08-05T22:47:05.063Z,46.50
2022-08-05T22:50:21.779Z,46.72
2022-08-05T22:52:30.273Z,46.26
2022-08-05T22:55:01.923Z,46.59
2022-08-05T22:57:36.150Z,46.52
2022-08-05T23:00:05.489Z,46.40
2022-08-05T23:02:39.796Z,46.31
2022-08-05T23:05:07.423Z,46.52
2022-08-05T23:07:45.079Z,46.43
2022-08-05T23:10:16.447Z,46.33
2022-08-05T23:12:51.156Z,46.41
2022-08-05T23:15:21.309Z,46.43
2022-08-05T23:17:59.706Z,46.44
2022-08-05T23:20:27.360Z,46.72
2022-08-05T23:22:56.542Z,46.30
2022-08-05T23:25:53.687Z,46.38
2022-08-05T23:28:13.250Z,46.52
2022-08-05T23:30:52.787Z,46.71
2022-08-05T23:33:25.574Z,46.42
2022-08-05T23:36:06.503Z,46.35
2022-08-05T23:38:37.613Z,46.45
2022-08-05T23:41:04.689Z,46.26
2022-08-05T23:43:37.417Z,46.45
2022-08-05T23:46:21.997Z,46.46
2022-08-05T23:49:00.720Z,46.36
2022-08-05T23:51:55.074Z,46.32
2022-08-05T23:54:29.961Z,46.51
2022-08-05T23:57:03.890Z,46.45
